KLCK/LCK METAR and TAF weather

Enter ICAO airport designator
Station Type Date Time Source
KLCK METAR 2021/09/27 06:55 UTC NOAA

KLCK 270655Z AUTO 18006KT 10SM CLR 13/09 A3003 RMK AO2 T01290091


Station Type Date Time Source
KLCK Decoded METAR 2021/09/27 06:55 UTC NOAA

Rickenbacker Air National Guard Base, OH, United States (KLCK) 39-49N 082-56W
Sep 27, 2021 - 02:55 AM EDT / 2021.09.27 0655 UTC
Wind: from the S (180 degrees) at 7 MPH (6 KT):0
Visibility: 10 mile(s):0
Sky conditions: clear
Temperature: 55.2 F (12.9 C)
Dew Point: 48.4 F (9.1 C)
Relative Humidity: 77%
Pressure (altimeter): 30.03 in. Hg (1016 hPa)
ob: KLCK 270655Z AUTO 18006KT 10SM CLR 13/09 A3003 RMK AO2 T01290091
cycle: 7

Station Type Date Time Source
KLCK TAF 2021/09/27 06:30 UTC NOAA

TAF KLCK 270526Z 2706/2806 19006KT P6SM SCT250
FM271400 22011G20KT P6SM SCT150
FM272300 23009KT P6SM SCT250

Example: see airport list